Timeline UpdatesTrip UpdatesNews PostsPvt Posts♥♥Travel TipsAdmin PostsConv PostsFollowed PostsChat RequestsBlog PostsPNR Posts

Disclaimer
Search
 
 
Sun Oct 26, 2014 01:13:09 ISTHomeTrainsΣChainsAtlasPNRForumGalleryNewsFAQTripsMembersLoginFeedback
No Recent News for this Train
Other Trains in the News **new
Latest...
Running with extra coach SE1 as per PNRhttp://indiarailinfo.com/pnr/post/1212564
Wed Sep 17, 2014 (07:50PM)
⇐ Return Journey: Train# 19049

19050/Patna-Mumbai Bandra T Express

Time-Table HAS CHANGED.
Sep 17 2014 (7:50PM)
Change Departure Station:
Change Arrival Station:
Post a Train Travel TipPost a Train Travel Tip **new
Post a Comment/Question/Picture/VideoPost a Comment/Question/Picture/Video
Inaugural Run
Mon Jan 01, 2001
Pantry/Catering
✕ NO Pantry Car
✓ Catering Avbl
Better carry own food
Loco/Rake Reversals
UDN/Udhna Junction (3);
RSA - Rake Sharing
19065/19066 Bandra-Jodhpur Express
Rake/Coach Composition
ENG-SLRLD-GEN-AB1-B1-S1-S2-S3-S4-S5-S6-S7-S8-S9-S10-S11-S12-S13-S14-S15-GEN-SLR.; PNBE-UDN
Loco
VTA/KTE/ET WDM 3A/D
News    PNR    Forum    Time-Table    Availability    Fare Chart    Map    Arr/Dep History    Trips    Gallery    ΣChains    X/O    Timeline    
Travel Time: 6h 8m    -2 halts    Distance: 355 km    Avg Speed: 57 km/hr
Type: Mail/Express
Zone: WR/Western
Departs @ 23:10 (Avg 35m late)
Platform# ???
   W   
Patna Junction/PNBE 
Arrives @ 05:18 +1 night
Platform# ???
    T  
Chheoki Junction/COI 

-2 halts. 64 intermediate Stations between Patna Junction and Chheoki Junction

Hide intermediate Stations  Show Old Time-Table

#TrkCodeStation NameX/OArrivesAvgDepartsAvgHaltPFDay#KmSpeedElevZoneAddress
1/==/PNBEPatna Junction (10)  -23:10+35--10.05657mECRPatna 800001, Bihar
1.1/==/SCYSachiwalay Halt (2)  23:12-23:12-  12.2 5657mECRPatna, Bihar
1.2/==/PWSPhulwari Sharif (3)X  23:16-23:16-  16.0 5658mECRPatna, Bihar
1.3/==/DNRDanapur (5)  23:20-23:20-  19.4 5658mECRKhagaul, Bihar
1.4/==/NEONeora (2)  23:27-23:27-  115.4 5661mECRNational Highway 98, Bihar
1.5/==/GNHIGandhi Halt  23:30-23:30-  118.4 5658mECRPatna, Bihar
1.6/==/SDESadisopur (2)  23:34-23:34-  122.5 5664mECRSadisopur, Bihar
1.7/==/PATLPatel Halt  23:36-23:36-  124.7 5661mECRPatna, Bihar
1.8/==/BTABihta (2)X  23:39-23:39-  126.7 5662mECRDistt: Patna, Bihar
1.9/==/VHCHChakki Block Cabin  23:45-23:45-  133.0 5663mECRNational Highway 30, Bihar
1.10/==/KWRKoelwar (2)  23:48-23:48-  135.5 5665mECRNational Highway 30, Bihar
1.11/==/KUAKulharia (2)  23:52-23:52-  139.0 5661mECRChandi Sahar Rd, Bihar
1.12/==/JMIRJamira  23:57-23:57-  144.0 56 ECRPatna, Bihar
1.13/==/ARAAra Junction (3)  00:03-00:03-  248.9 5663mECRDistt: Bhojpur Ph 06182-233411, Bihar
1.14/==/JGWLJagjivan  00:06-00:06-  252.1 5659mECRBuxar, Bihar
1.15/==/KRSKarisath (2)  00:13-00:13-  258.9 5665mECRKarisath, Bihar
1.16/==/KYAKauriyaX  00:17-00:17-  262.5 5661mECRBuxar, Bihar
1.17/==/XSANSarvodaya Halt  00:19-00:19-  264.5 5663mECRBuxar, Bihar
1.18/==/RNTERamanand Tewary  00:21-00:21-  266.5 5663mECRBuxar, Bihar
1.19/==/BEABihiya (3)  00:26-00:26-  270.4 5667mECRBehea, Bihar
1.20/==/ASJPAmar Shahid Jagdev Prasad Halt  00:30-00:30-  274.2 5663mECRArrah Buxar Rd, Bihar
1.21/==/BYNBanahi (2)  00:32-00:32-  276.3 5667mECRBanahi, Bihar
1.22/==/SKRISikaria  00:36-00:36-  280.2 5663mECRKuawan Tikathi Rd, Bihar
1.23/==/RPRRaghunathpur (4)X  00:41-00:41-  285.1 5669mECRRaghunathpur, Bihar
1.24/==/VKDHVeer Kunwar Singh Dharauli Halt  00:46-00:46-  289.4 5665mECRArrah Buxar Rd, Bihar
1.25/==/TWGTwining Ganj  00:50-00:50-  293.5 5670mECRArrah Buxar Rd, Bihar
1.26/==/DUREDumraon (3)X  00:59-00:59-  2101.1 5670mECRDumraon, Bihar
1.27/==/BUEBarunaO  01:06-01:06-  2108.2 5665mECRArrah Buxar Rd, Bihar
1.28/==/BXRBuxar (3)O  01:16-01:16-  2117.4 5667mECRBuxar, Bihar
1.29/==/PWXPPawani Kumarpur Halt  01:26-01:26-  2126.3 5666mECRSukarwallia Rd, Bihar
1.30/==/CSAChausa (2)X  01:28-01:28-  2128.4 5668mECRState Highway 14, Bihar
1.31/==/BQWBarakalan  01:34-01:34-  2134.3 5668mECRState Highway 14, Bihar
1.32/==/GMRGahmar (2)X  01:38-01:38-  2137.6 5668mECRDistt: Ghazipur, Uttar Pradesh
1.33/==/KKRHKarahia  01:42-01:42-  2141.7 5672mECRPhooli Rd, Uttar Pradesh
1.34/==/BWHBhadaura (2)  01:47-01:47-  2145.8 5669mECRGhazipur, Uttar Pradesh
1.35/==/USKUsia Khas  01:50-01:50-  2149.4 5669mECRDildarnagar, Uttar Pradesh
1.36/==/DLNDildarnagar Junction (2)X  01:55-01:55-  2153.6 5672mECRDildarnagar, Uttar Pradesh
1.37/==/DRVDarauli (2)X  02:03-02:03-  2160.7 5670mECRDarauli, Uttar Pradesh
1.38/==/ZNAZamania (2)  02:09-02:09-  2167.1 5677mECRGhazipur, Uttar Pradesh
1.39/==/BHCLBahora Chandil  02:15-02:15-  2172.1 5672mECRDhanapur Avahi Rd, Uttar Pradesh
1.40/==/DHADheena  02:23-02:23-  2179.5 5674mECRDheena, Uttar Pradesh
1.41/==/TLAMTulsi AshramX  02:31-02:31-  2186.8 5677mECRState Highway 69, Uttar Pradesh
1.42/==/SLDSakaldiha (2)X  02:37-02:37-  2193.1 5681mECRState Highway 69, Uttar Pradesh
1.43/==/KCAKuchman (2)  02:46-02:46-  2200.8 5679mECRKuchman, Uttar Pradesh
1.44/==/EOCMEOCM  02:48-02:48-  2202.7 5679mECRChandauli Mjhwr, Uttar Pradesh
1.45/==/MGMYMughal Sarai Marshalling Yard  02:54-02:54-  2208.6 5681mECRMughalsarai, Uttar Pradesh
2/==/MGSMughal Sarai Junction (8)  02:52 02:57+5703:07+5715 10m22211.46683mECRDistt: Chandauli Pin 232101, Uttar Pradesh
2.1/==/NEWCNew West CabinX  03:08-03:08-  2212.6 6680mECRMughal Sarai, Uttar Pradesh
2.2/==/JEPJeonathpur (2)X  03:14-03:14-  2219.2 6683mNCRVaranasi, Uttar Pradesh
2.3/==/ARWAhraura Road (4)X  03:20-03:20-  2225.1 6685mNCRDist. Mirzapur - 231305, Uttar Pradesh
2.4/==/KYTKailahat (4)  03:27-03:27-  2233.6 6683mNCRKailahat, Uttar Pradesh
2.5/==/CARChunar Junction (5)  03:36-03:36-  2243.3 6685mNCRChunar Junction, Uttar Pradesh
2.6/==/DAPDagmagpurX  03:43-03:43-  2250.7 6688mNCRDagmagpur, Uttar Pradesh
2.7/==/PREPaharaX  03:50-03:50-  2258.7 6687mNCRNational Highway 7, Uttar Pradesh
2.8/==/JHGJhingura  03:57-03:57-  2266.2 6685mNCRNational Highway 7, Uttar Pradesh
2.9/==/MZPMirzapur (3)  04:05-04:05-  2274.5 6688mNCRMirzapur, Uttar Pradesh
2.10/==/BDLVindhyachal (3)  04:11-04:11-  2281.9 6688mNCRMirzapur, Uttar Pradesh
2.11/==/BEOBirohe  04:16-04:16-  2286.6 6683mNCRNational Highway 76, Uttar Pradesh
2.12/==/GAEGaipura (4)X  04:23-04:23-  2294.2 6686mNCRGaipura, Uttar Pradesh
2.13/==/JIAJigna (1)  04:29-04:29-  2301.0 6694mNCRNational Highway 76, Uttar Pradesh
2.14/==/MNFManda Road  04:37-04:37-  2309.4 6693mNCRNH 76, Uttar Pradesh
2.15/==/UNDUnchdihX  04:44-04:44-  2317.5 6694mNCRUnchdih, Uttar Pradesh
2.16/==/MJAMeja Road (4)X  04:51-04:51-  2325.6 6694mNCRDistrict Allahabad, Uttar Pradesh
2.17/==/BEPBheerpurX  05:02-05:02-  2336.9 6694mNCRNH 76, Uttar Pradesh
2.18/==/KCNKarchana  05:10-05:10-  2346.0 6694mNCRKarchana, Uttar Pradesh
2.19/==/COIChheoki Junction (3)X  05:18-05:18-  2355.0 6696mNCRDist.-Allahabad, Uttar Pradesh
2.20%==/NYNNaini Junction (4)  05:20-05:20-  2356.6 6698mNCRAllahabad, Uttar Pradesh
2.21%==%LKJNLink Junction Cabin  05:24-05:24-  2361.1 6694mNCRAllahabad, Uttar Pradesh
2.22%==%IDGJIradatganj (3)  05:28-05:28-  2366.0 6699mNCRAllahabad, Uttar Pradesh
2.23%==%JSRJasra (2)  05:34-05:34-  2372.2 6697mNCRJasra, Uttar Pradesh
2.24%==%MFXMadarahaX  05:39-05:39-  2377.8 66103mNCRNational Highway 76, Uttar Pradesh
2.25%==%LOGLohgara (2)X  05:45-05:45-  2384.1 66112mNCRLohgara, Uttar Pradesh
2.26%==%SRJShankargarh (3)  05:54-05:54-  2394.0 66132mNCRShankargarh, Uttar Pradesh
2.27%==%MJHRMajhiari  06:03-06:03-  2403.7 66145mNCRNational Highway 76, Uttar Pradesh
2.28%==%BRGBargarh  06:09-06:09-  2410.8 66166mNCRBargarh, Uttar Pradesh
2.29%==%KTDDKataiya DandiX  06:14-06:14-  2416.3 66168mNCRKataiya, Uttar Pradesh
2.30%==%DBRDabhaura (2)  06:23-06:23-  2426.5 66201mNCRDabhaura, Uttar Pradesh
2.31%==%PNHIPanhaiX  06:33-06:33-  2436.9 66214mNCRManikpur, Uttar Pradesh
2.32%==%MKPManikpur Junction (4)  06:44-06:44-  2449.0 66250mNCRManikpur, Uttar Pradesh
2.33%==%BNSPBansapahar (1)X  06:47-06:47-  2452.5 66253mWCRBansapahar, Uttar Pradesh
2.34%==%BQFBarah MuafiX  06:51-06:51-  2456.9 66264mWCRBarahmuafi, Uttar Pradesh
2.35%==%MKDMarkundi  06:59-06:59-  2464.9 66270mWCRState Highway 11, Madhya Pradesh
2.36%==%TKYRTikaria (2)X  07:06-07:06-  2472.8 66268mWCRMDR 11, Madhya Pradesh
2.37%==%EDAItwan Dundaila  07:13-07:13-  2480.4 66320mWCRMajhgawa, Madhya Pradesh
2.38%==%MJGMajhagawanX  07:18-07:18-  2485.9 66343mWCRMajhgawa, Madhya Pradesh
2.39%==%CTHRChitahra  07:23-07:23-  2491.7 66367mWCRMDR 11, Madhya Pradesh
2.40%==%KTHAKhutahaX  07:30-07:30-  2499.2 66332mWCRMDR 11, Madhya Pradesh
2.41%==%JTWJaitwar (2)X  07:37-07:37-  2506.7 66321mWCRJaitwar, Madhya Pradesh
2.42%==%HATIHati  07:41-07:41-  2511.5 66310mWCRBhad, Madhya Pradesh
2.43%==%SAGMSagma (1)X  07:49-07:49-  2520.5 66337mWCRSatna, Madhya Pradesh
3%==%STASatna Junction (3)X  07:55+2:2808:05+2:2710m32526.784322mWCRSatna, Madhya Pradesh
3.1%==%LGCELagargawan (2)  08:13-08:13-  2538.3 84319mWCRLagargawan, Madhya Pradesh
3.2%==%UHRUnchhera (2)  08:20-08:20-  2547.9 84331mWCRUnchhera, Madhya Pradesh
3.3%==%MYRMaihar (3)  08:30-08:30-  2562.1 84353mWCRMaihar Railway Station, Madhya Pradesh
3.4%==%BUUBhadanpur (2)  08:40-08:40-  2575.6 84362mWCRNational Highway 7, Madhya Pradesh
3.5%==%UDRAmdara (2)  08:49-08:49-  2588.2 84376mWCRNational Highway 34, Madhya Pradesh
3.6%==%PKRDPakara Road (2)  08:56-08:56-  2597.9 84381mWCRPakara, Madhya Pradesh
3.7%==%JKEJukehi (3)  09:03-09:03-  2607.7 84402mWCRJukehi, Madhya Pradesh
3.8%==%PTWAPatwara (2)  09:09-09:09-  2616.1 84398mWCRNational Highway 34 Distric Katni Madhya Pradesh, Madhya Pradesh
4|==%KTEKatni Junction (6)X  09:15+1:3809:20+1:375m42625.155387mWCRKatni, Madhya Pradesh
4.1|==%KTESKatni South  09:22-09:22-  2627.0 55386mWCRKatni, Madhya Pradesh
4.2|==|MDRRMadhavnagar Road (2)  09:26-09:26-  2630.3 55398mWCRMadhavnagar, Madhya Pradesh
4.3|==|NWRNiwar (2)  09:34-09:34-  2638.2 55412mWCRPipraundh, Madhya Pradesh
4.4|==|SNRRSansarpur (2)  09:43-09:43-  2646.0 55436mWCRNational Highway 7, Madhya Pradesh
4.5|==|SBDSleemanabad Road (2)X  09:51-09:51-  2652.9 55434mWCRSleemanabad, Madhya Pradesh
4.6|==|DDCEDundi (2)X  10:01-10:01-  2662.4 55415mWCRDundi, Madhya Pradesh
4.7|==|SHRSihora Road (2)  10:18-10:18-  2677.3 55388mWCRJabalpur, Madhya Pradesh
4.8|==|GSPRGosalpur (2)X  10:30-10:30-  2688.4 55396mWCRJabalpur, Madhya Pradesh
4.9|==|DOEDeori (2)  10:41-10:41-  2699.0 55392mWCRJabalpur, Madhya Pradesh
4.10|==|ADTLAdhartal (2)  10:51-10:51-  2707.8 55393mWCRJabalpur, Madhya Pradesh
5|==|JBPJabalpur Junction (4)  10:50 11:00+2:0011:00 11:10+2:0110m12715.976416mWCRJabalpur, Madhya Pradesh
5.1|==|HBGHowbagh Jabalpur (2)  11:12-11:12-  2718.0 76405mSECRJabalpur, Madhya Pradesh
5.2|==|MMLMadan Mahal (3)  11:13-11:13-  2719.2 76428mWCRJabalpur, Madhya Pradesh
5.3|==|KEQKachhpura (2)  11:14-11:14-  2721.0 76392mWCRJabalpur, Madhya Pradesh
5.4|==|BRGTBheraghat (2)  11:23-11:23-  2732.4 76389mWCRBheraghat, Madhya Pradesh
5.5|==|BHTNBhitoni (2)  11:33-11:33-  2745.5 76377mWCRJabalpur, Madhya Pradesh
5.6|==|BMRBikrampur (2)  11:42-11:42-  2757.1 76353mWCRBikrampur Dist Narsingpur., Madhya Pradesh
5.7|==|SRIDShridham (3)X  11:52-11:52-  2768.8 76373mWCRShridham, Madhya Pradesh
5.8!==|KKBKarak Bel (2)  12:04-12:04-  2784.3 76375mWCRKarak Bel, Madhya Pradesh
5.9!==|BELDBelkhera (2)  12:07-12:07-  2788.7 76367mWCRState Highway 22, Madhya Pradesh
5.10|==!GPCGhatpindrai (2)  12:11-12:11-  2794.2 76366mWCRGhatpindra, Madhya Pradesh
6|==|NUNarsinghpur (2)X  12:09 12:16+1:2912:11 12:18+1:292m22800.067365mWCRNarsimhapur, Madhya Pradesh
6.1|==|KYKareli (2)  12:32-12:32-  2815.8 67361mWCRKareli, Madhya Pradesh
6.2|==|KFYKarapgaon (2)X  12:40-12:40-  2824.4 67363mWCRNational Highway 26, Madhya Pradesh
6.3|==|BNEBohani (2)  12:46-12:46-  2831.4 67361mWCRNarsinghpur, Madhya Pradesh
6.4|==|GARGadarwara (2)  12:58-12:58-  2844.3 67352mWCRNarsinghpur, Madhya Pradesh
6.5|==|SCKRSalichauka Road (2)X  13:11-13:11-  2858.2 67355mWCRGadarwara, Madhya Pradesh
6.6|==|JHTJunehta (2)X  13:20-13:20-  2868.3 67353mWCRState Highway 22, Madhya Pradesh
6.7|==|BKHBankhedi (2)  13:25-13:25-  2874.3 67351mWCRBankheri, Madhya Pradesh
6.8|==|PPIPipariya (3)X  13:43-13:43-  2893.7 67338mWCRPiparia, Madhya Pradesh
6.9|==|SXFSobhapur (2)X  13:50-13:50-  2902.3 67338mWCRState Highway 22, Madhya Pradesh
6.10|==|SGPSohagpur (2)  13:59-13:59-  2911.4 67340mWCRSohagpur, Madhya Pradesh
6.11|==|GMDGuramkhedi (2)  14:08-14:08-  2921.4 67337mWCRGuramkhedi, Madhya Pradesh
6.12|-=|BGTABagratawa (2)  14:19-14:19-  2934.5 67338mWCRBagra Tawa, Madhya Pradesh
6.13|=-|SQLSontalai (2)  14:26-14:26-  2941.3 67329mWCRItarsi, Madhya Pradesh
6.14|==|GROGurra (2)  14:34-14:34-  2950.3 67327mWCRItarsi, Madhya Pradesh
6.15/==/ETItarsi Junction (7)  15:00 14:43-15:10 14:43-  2960.9 67329mWCRItarsi 461111, Madhya Pradesh
6.16/==/ITMAItarsi Marshalling Yard  14:44-14:44-  2961.8 67324mWCRItarsi, Madhya Pradesh
6.17/==/JUHJujharpur Cabin  14:44-14:44-  2961.9 67322mWCRItarsi, Madhya Pradesh
6.18/==/ETBItarsi B Cabin  14:49-14:49-  2967.1 67320mWCRJamani, Madhya Pradesh
6.19/==/DRADularia (2)  14:54-14:54-  2973.2 67318mWCRItarsi, Madhya Pradesh
6.20/==/KTZKhutwansa (2)  14:59-14:59-  2978.8 67325mWCRSH 15, Madhya Pradesh
6.21/==/DKIDharamkundi (2)  15:06-15:06-  2986.2 67314mWCRSH 15, Madhya Pradesh
6.22/==/BPFBanapura (2)  15:13-15:13-  2994.4 67314mWCRBanapura, Madhya Pradesh
6.23/==/BIFBhaironpur (2)  15:20-15:20-  21001.7 67322mWCRSH 15, Madhya Pradesh
6.24/==/PGLPagdhal (2)  15:27-15:27-  21009.0 67317mWCRPagdhal, Madhya Pradesh
6.25/==/CGOChhidgaon (2)X  15:30-15:30-  21013.1 67309mWCRHarda, Madhya Pradesh
6.26/==/TBNTimarni (2)  15:39-15:39-  21022.6 67308mWCRTimarni, Madhya Pradesh
6.27/==/CRKCharkhera (2)X  15:45-15:45-  21029.7 67298mWCRBarkalan, Madhya Pradesh
6.28/==/HDHarda (3)X  15:52-15:52-  21036.7 67289mWCRHarda, Madhya Pradesh
6.29/==/PALPalasner (2)  15:58-15:58-  21044.1 67296mWCRHarda, Madhya Pradesh
6.30/==/MUOMasangaon (2)  16:04-16:04-  21050.0 67303mWCRSH 15, Madhya Pradesh
6.31/==/BRIBhiringi (2)X  16:08-16:08-  21055.2 67294mWCRSH 15, Madhya Pradesh
6.32/==/KROKurawan (2)  16:14-16:14-  21061.9 67297mWCRSH 15, Madhya Pradesh
6.33/==/KKNKhirkiya (2)  16:20-16:20-  21068.2 67281mWCRSH 15, Madhya Pradesh
6.34/==/DRHIDagarhkeri (2)  16:30-16:30-  21079.2 67274mWCRState Highway 15, Madhya Pradesh
6.35/==/BRUDBarud (2)  16:39-16:39-  21088.8 67273mWCRKhandwa, Madhya Pradesh
6.36/==/CAERChhanera (2)X  16:48-16:48-  21098.9 67283mWCRChhanera, Madhya Pradesh
6.37/==/CKKDCharkheda Khurd (2)X  16:54-16:54-  21105.7 67274mWCRKhandwa, Madhya Pradesh
6.38/==/SGBJSurgaon Banjari (2)X  17:04-17:04-  21116.8 67298mWCRKhandwa, Madhya Pradesh
6.39/==/TLVTalvadiya (2)X  17:15-17:15-  21128.6 67308mWCRKhandwa, Madhya Pradesh
6.40/==/MTAMathela (2)  17:22-17:22-  21137.0 67322mWCRKhandwa, Madhya Pradesh
6.41/==/KNWKhandwa Junction (5)X  17:29-17:29-  21144.3 67310mCRKhandwa, Madhya Pradesh
6.42/==/BRGJBargaon Gujar (2)X  17:33-17:33-  21149.5 67316mCRKhandwa, Madhya Pradesh
6.43/==/BMABagmar (2)  17:39-17:39-  21155.5 67335mCRState Highway 27, Madhya Pradesh
6.44/==/KDKKohdad (2)  17:43-17:43-  21159.9 67344mCRState Highway 15, Madhya Pradesh
6.45/==/DGNDongargaon (2)  17:50-17:50-  21167.5 67373mCRBorgaon, Madhya Pradesh
6.46/==/SXASagphata (2)  17:57-17:57-  21175.2 67350mCRKhandwa, Madhya Pradesh
6.47/==/MWAMandwa (2)  18:02-18:02-  21181.2 67317mCRState Highway 27, Madhya Pradesh
6.48/==/NPNRNepanagar (2)  18:07-18:07-  21187.0 67289mCRState Highway 27, Madhya Pradesh
6.49/==/CDIChandni (2)X  18:14-18:14-  21194.0 67276mCRNepanagar Rd, Madhya Pradesh
6.50/==/AGQAsirgarh Road (2)X  18:23-18:23-  21204.3 67259mCRState Highway 27, Madhya Pradesh
6.51/==/BAUBurhanpur (2)  18:31-18:31-  21213.2 67269mCRBurhanpur, Madhya Pradesh
6.52/==/WGAWaghodaX  18:40-18:40-  21223.5 67259mCRChorwad, Maharashtra
6.53/==/RVRaver (2)X  18:49-18:49-  21233.4 67242mCRJalgaon, Maharashtra
6.54/==/NBNimbhora (2)  18:58-18:58-  21243.6 67229mCRJalgaon, Maharashtra
6.55/==/SAVSavda (2)X  19:06-19:06-  21252.3 67220mCRSavda, Maharashtra
6.56/==/DSKDuskheda (2)  19:14-19:14-  21261.0 67213mCRDuskheda Station, Maharashtra
6.57/==/BSBNBhusaval B Cabin  19:17-19:17-  21264.3 67214mCRBhusawal, Maharashtra
7/==/BSLBhusaval Junction (8)X  19:20+1:4719:30+1:4710m621267.740208mCRBhusaval 425201, Maharashtra
7.1/==/BDIBhadli (2)O  19:49-19:49-  21280.3 40211mCRBhadli, Maharashtra
7.2/==/TRWTarsodX  19:59-19:59-  21287.1 40206mCRAsoda - Tarsod Road, Maharashtra
7.3%==%JLJalgaon Junction (4)  20:06-20:06-  21291.8 40213mCRJalgaon 425001, Maharashtra
7.4%==%PLDPaldhi (2)  20:23-20:23-  21302.9 40208mWRPaldhi, Maharashtra
7.5%==%CHLKChavalkhede  20:40-20:40-  21314.4 40196mWRState Highway 185, Maharashtra
7.6%==/DXGDharangaon (2)  20:50-20:50-  21321.5 40217mWRDharangaon, Maharashtra
7.7/==/BHNEBhone (2)  21:02-21:02-  21329.2 40196mWRState Highway 185, Maharashtra
7.8/==/TKHETakarkhede (1)  21:10-21:10-  21335.0 40203mWRState Highway 6, Maharashtra
7.9/==%ANAmalner (2)  21:28-21:28-  21346.4 40188mWRAmalner, Maharashtra
7.10%==%BRTKBhortex  21:40-21:40-  21354.5 40180mWRVadhoda, Maharashtra
7.11%==%PDPPadse  21:51-21:51-  21362.4 40181mWRDhule, Maharashtra
7.12%==%BEWBetavad (1)  22:00-22:00-  21367.9 40178mWRState Highway 6, Maharashtra
7.13%==%NDNNardana (1)  22:10-22:10-  21374.7 40184mWRNardana, Maharashtra
7.14%==%HOLHol (1)  22:17-22:17-  21379.7 40185mWRState Highway 6, Maharashtra
7.15%==%SNKSindkheda (1)  22:30-22:30-  21388.0 40178mWRState Highway 11, Maharashtra
7.16%==%SNSLSonshelu (1)X  22:39-22:39-  21394.4 40185mWRMSH1, Maharashtra
7.17%==%VKHVikhran (1)  22:46-22:46-  21399.2 40176mWRMSH1, Maharashtra
7.18%=-/DDEDondaicha (2)  22:59-22:59-  21407.4 40163mWRDondaicha, Maharashtra
7.19/--/RNLRanala (1)X  23:17-23:17-  21419.4 40164mWRState Highway 6, Maharashtra
7.20/--/TISITisi (1)  23:31-23:31-  21428.9 40185mWRState Highway 7, Maharashtra
7.21/-=%CUEChoupale (1)  23:42-23:42-  21436.6 40208mWRNehru Nagar, Maharashtra
8/-=%NDBNandurbar (3)  23:50+1:1823:58+1:158m221441.840203mWRNandurbar, Maharashtra
8.1%==%DWDDhekwad (1)  00:12-00:12-  31450.8 40209mWRState Highway 5, Maharashtra
8.2%==%BAWDBhadwad (1)X  00:22-00:22-  31457.7 40212mWRBhadwad, Maharashtra
8.3%==%KBHKhandbara (1)  00:32-00:32-  31464.4 40198mWRKhandbara, Maharashtra
8.4%==%KHTGKhatgaon (1)  00:45-00:45-  31473.2 40178mWRState Highway 5, Maharashtra
8.5%==/CPDChinchpada (1)  01:00-01:00-  31483.0 40178mWRGangapur, Maharashtra
8.6/==/KFFKolda (1)  01:10-01:10-  31489.3 40160mWRGangapur, Maharashtra
8.7/==/NWUNavapur (2)X  01:25-01:25-  31499.7 40124mWRNavapur, Gujarat
8.8/==/BBAIBhadbhunja (1)O  01:42-01:42-  31510.8 40126mWRGujarat 394375 ?, Gujarat
8.9/==/LKKDLakkad Kot (1)  01:49-01:49-  31515.7 40122mWRGujarat 394375 ?, Gujarat
8.10/==/USDUkai Songadh (2)  02:00-02:00-  31522.9 40139mWRSongadh, Gujarat
8.11/==/DSDDosvada (1)  02:07-02:07-  31527.5 40121mWRNational Highway 6, Gujarat
8.12/==/KKRDKikakui Road (1)  02:11-02:11-  31530.1 40114mWRGujarat 394650 ?, Gujarat
8.13/==%VYAVyara (2)  02:28-02:28-  31541.6 4090mWRVyara, Gujarat
8.14%==%LTVLotarva (1)  02:38-02:38-  31548.1 4057mWRSankr Main Rd, Gujarat
8.15%==%KRAIKaher (1)  02:43-02:43-  31551.2 4055mWRKaher, Gujarat
8.16%==%MIDMadhi (1)  02:51-02:51-  31556.6 4045mWRMadhi, Gujarat
8.17%==%MGRLMangrolla (1)  02:59-02:59-  31561.9 4036mWRPipariya, Gujarat
8.18%==%TBVTimbarva (1)  03:03-03:03-  31564.6 4035mWRTimberva, Gujarat
8.19%==%BIYBardoli (2)  03:13-03:13-  31571.4 4035mWRNear Bardoli Sugar Factory Bardoli, Gujarat
8.20%==%GGARGangadhara (1)  03:22-03:22-  31577.6 4027mWRKareli, Gujarat
8.21%==%BGMRBagumra (1)  03:30-03:30-  31582.7 4022mWRNational Highway 6, Gujarat
8.22%==%CHMChalthan (1)  03:37-03:37-  31587.1 4023mWRKadodra, Gujarat
8.23%==%NOLNiyol (1)  03:44-03:44-  31592.1 4018mWRSurat, Gujarat
9/==%UDNUdhna Junction (3)X03:54+2:1603:55+2:451m331598.65116mWRUdhna 394210, Gujarat
9.1/==/BHETBhestan (2)X  04:01-04:01-  31603.4 5113mWRSurat, Gujarat
9.2/==/SCHSachin (3)X  04:07-04:07-  31609.1 5111mWRKansad Road Sachin, Gujarat
9.3/==/MRLMaroli (3)  04:15-04:15-  31615.8 5115mWRMaroli, Gujarat
9.4/==/NVSNavsari (3)  04:25-04:25-  31624.2 5114mWRNavsari, Gujarat
9.5/==/GNSTGandhi Smriti (2)  04:29-04:29-  31627.2 5116mWRGandhi Smriti Navsari, Gujarat
9.6/==/HXRHansapore (2)  04:30-04:30-  31628.8 5115mWRHansapore, Gujarat
9.7/==/VDHVedchha (3)X  04:35-04:35-  31632.6 5113mWRNavsari, Gujarat
9.8/==/ACLAncheli (2)  04:39-04:39-  31636.0 5120mWRNavsari, Gujarat
9.9/==/AMLAmalsad (3)X  04:43-04:43-  31639.8 5112mWRAmalsad, Gujarat
9.10/==/BIMBilimora Junction (4)  04:50-04:50-  31645.4 5111mWRBilimora, Gujarat
9.11/==/JRSJoravasan (2)  04:55-04:55-  31649.3 5115mWRJoravasan, Gujarat
9.12/==/DGIDungri (3)  05:01-05:01-  31654.4 5120mWRNH 8, Gujarat
10/==/BLValsad (3)  05:11+2:1905:12+2:211m331663.35815mWRValsad, Gujarat
10.1/==/ATULAtul (3)  05:19-05:19-  31670.0 5822mWRValsad, Gujarat
10.2/==/PADPardi (3)  05:23-05:23-  31674.0 5819mWRValsad, Gujarat
10.3/==/UVDUdvada (3)  05:29-05:29-  31680.0 5818mWRUdvada, Gujarat
10.4/==/BAGDBagwada (2)  05:32-05:32-  31682.8 5822mWRNH8, Gujarat
11/==/VAPIVapi (3)  05:39+2:1805:40+2:181m231689.64927mWRVapi, Gujarat
11.1/==/KEBKarambeli (2)  05:48-05:48-  31696.0 4929mWRNational Highway 8, Gujarat
11.2/==/BLDBhilad (3)XO  05:54-05:54-  31700.8 4933mWRBhilad, Gujarat
11.3/==/SJNSanjan (3)  06:08-06:08-  31712.4 4922mWRSanjan, Gujarat
11.4/==/UBRUmbargam Road (3)X  06:14-06:14-  31717.8 4930mWRUmbergaon, Gujarat
11.5/==/BRRDBordi Road (2)  06:20-06:20-  31722.0 4917mWRBordi, Maharashtra
11.6/==/GVDGholvad (4)  06:26-06:26-  31726.9 4914mWRGholvad, Maharashtra
11.7/==/DRDDahanu Road (5)  06:39-06:39-  31738.1 4912mWRDahanu, Maharashtra
11.8/==/VGNVangaon (3)X  06:54-06:54-  31750.4 4911mWRDist. Palghar, Maharashtra
11.9/==/BORBoisar (3)O  07:06-07:06-  31759.8 4917mWRBoisar Tel.no-02525-266626, Maharashtra
11.10/==/UOIUmroli (2)X  07:12-07:12-  31764.7 498mWRBoisar, Maharashtra
11.11/==/PLGPalghar (3)  07:19-07:19-  31771.1 4919mWRPalghar, Maharashtra
11.12/==/KLVKelve Road (3)X  07:30-07:30-  31779.5 4910mWRDist. Palghar, Maharashtra
11.13/==/SAHSaphale (2)  07:38-07:38-  31785.9 498mWRDist. Palghar, Maharashtra
11.14/==/VTNVaitarna (2)  07:47-07:47-  31793.7 493mWRDist. Palghar, Maharashtra
11.15/==/VRVirar (8)X  07:57-07:57-  31802.2 496mWRDist. Palghar, Maharashtra
11.16/==/NSPNallasopara (4)  08:03-08:03-  31806.4 495mWRNallasopara station Rd, Maharashtra
11.17/==/BSRVasai Road (7)  08:08-08:08-  31810.6 497mWRVasai 401202, Maharashtra
11.18/==/NIGNaigaon (4)  08:12-08:12-  31814.3 495mWRNaigaon West, Maharashtra
11.19/==/BYRBhayandar (6)X  08:18-08:18-  31819.0 496mWRThane, Maharashtra
11.20/==/MIRAMira Road (4)  08:22-08:22-  31822.3 493mWRMira Bhayandar, Maharashtra
11.21/==/DICDahisar (4)X  08:26-08:26-  31825.7 4914mWRMumbai, Maharashtra
12/==/BVIMumbai Borivali (8)  08:29+5708:30+571m631828.02219mWRMumbai - 400092, Maharashtra
12.1/==/KILEKandivli (4)  08:37-08:37-  31830.8 2214mWRMumbai, Maharashtra
12.2/==/MDDMalad (4)  08:43-08:43-  31832.9 2218mWRMumbai-400064, Maharashtra
12.3/==/GMNGoregaon (5)X  08:49-08:49-  31835.3 2215mWRMumbai - 400104, Maharashtra
12.4/==/JOSJogeshwari (4)  08:58-08:58-  31838.4 2214mWRMumbai, Maharashtra
12.5/==/ADHMumbai Andheri (9)  09:04-09:04-  31840.6 2212mWRMumbai, Maharashtra
12.6/==/VLPVille Parle (6)  09:09-09:09-  31842.6 2211mWRMumbai, Maharashtra
12.7/==/STCSanta Cruz (6)  09:14-09:14-  31844.5 2210mWRMumbai, Maharashtra
12.8/==/KHARKhar (6)  09:18-09:18-  31845.9 227mWRMumbai, Maharashtra
13/==/BDTSMumbai Bandra Terminus (5)  09:20+1:20-331846.8-4mWRMumbai 400050, Maharashtra
Scroll to Top
Scroll to Bottom